Main page
METAR-TAF:

METAR-TAF

Airports :

Danbury Municipal Airport

Danbury, Connecticut, United States

latitude: 41-22-18N, longitude: 073-29-04W, elevation: 456 ft

Current weather observation

The report was made 57 minutes ago, at 00:53 UTC
Wind 5 mph from the North/Northeast
Temperature 36°F
Humidity 55%
Pressure 30.34 in. Hg
Visibility: 10 miles
Clear sky

METAR: KDXR 180053Z 03004KT 10SM CLR 02/M06 A3034 RMK AO2 SLP279 T00221056

Time: 20:50 (01:50 UTC)


TAF: missing

Weather observations and forecasts of more than 4000 airports (METAR and TAF reports).

The available stations are represented by yellow and red dots on the map.

Hover mouse over dot to see the name of the station.

Then click to see weather observations and forecasts.

To change the map : click on the green buttons with a black cross to zoom in, on the green button with a dash to zoom out, or on the green arrows for adjacent maps.


METAR-TAF: